sensor_id;sensor_type;location;lat;lon;timestamp;temperature;humidity
72126;SHT31;59999;51.676;22.650;2023-08-07T00:02:07;15.87;86.82
72126;SHT31;59999;51.676;22.650;2023-08-07T00:04:33;15.85;86.62
72126;SHT31;59999;51.676;22.650;2023-08-07T00:06:59;15.84;86.14
72126;SHT31;59999;51.676;22.650;2023-08-07T00:09:25;15.88;85.98
72126;SHT31;59999;51.676;22.650;2023-08-07T00:11:51;15.92;85.86
72126;SHT31;59999;51.676;22.650;2023-08-07T00:14:17;15.95;85.26
72126;SHT31;59999;51.676;22.650;2023-08-07T00:16:43;15.91;85.21
72126;SHT31;59999;51.676;22.650;2023-08-07T00:19:09;15.87;85.62
72126;SHT31;59999;51.676;22.650;2023-08-07T00:21:34;15.85;85.86
72126;SHT31;59999;51.676;22.650;2023-08-07T00:24:01;15.88;85.49
72126;SHT31;59999;51.676;22.650;2023-08-07T00:26:27;15.85;85.76
72126;SHT31;59999;51.676;22.650;2023-08-07T00:28:53;15.78;85.74
72126;SHT31;59999;51.676;22.650;2023-08-07T00:31:19;15.85;85.36
72126;SHT31;59999;51.676;22.650;2023-08-07T00:33:45;15.82;85.41
72126;SHT31;59999;51.676;22.650;2023-08-07T00:36:11;15.82;85.64
72126;SHT31;59999;51.676;22.650;2023-08-07T00:38:37;15.75;85.44
72126;SHT31;59999;51.676;22.650;2023-08-07T00:41:03;15.74;85.16
72126;SHT31;59999;51.676;22.650;2023-08-07T00:43:29;15.75;85.30
72126;SHT31;59999;51.676;22.650;2023-08-07T00:45:55;15.72;85.20
72126;SHT31;59999;51.676;22.650;2023-08-07T00:48:21;15.67;85.32
72126;SHT31;59999;51.676;22.650;2023-08-07T00:50:48;15.67;85.26
72126;SHT31;59999;51.676;22.650;2023-08-07T00:53:14;15.65;85.07
72126;SHT31;59999;51.676;22.650;2023-08-07T00:55:41;15.60;85.50
72126;SHT31;59999;51.676;22.650;2023-08-07T00:58:07;15.60;85.39
72126;SHT31;59999;51.676;22.650;2023-08-07T01:00:34;15.57;85.40
72126;SHT31;59999;51.676;22.650;2023-08-07T01:03:01;15.57;85.61
72126;SHT31;59999;51.676;22.650;2023-08-07T01:05:27;15.57;85.59
72126;SHT31;59999;51.676;22.650;2023-08-07T01:07:53;15.51;84.83
72126;SHT31;59999;51.676;22.650;2023-08-07T01:16:18;15.51;84.59
72126;SHT31;59999;51.676;22.650;2023-08-07T01:18:48;15.50;84.28
72126;SHT31;59999;51.676;22.650;2023-08-07T01:21:21;15.50;84.08
72126;SHT31;59999;51.676;22.650;2023-08-07T01:23:47;15.47;83.58
72126;SHT31;59999;51.676;22.650;2023-08-07T01:26:14;15.43;83.89
72126;SHT31;59999;51.676;22.650;2023-08-07T01:28:53;15.40;84.03
72126;SHT31;59999;51.676;22.650;2023-08-07T01:31:20;15.37;84.40
72126;SHT31;59999;51.676;22.650;2023-08-07T01:34:00;15.39;84.56
72126;SHT31;59999;51.676;22.650;2023-08-07T01:36:28;15.33;84.71
72126;SHT31;59999;51.676;22.650;2023-08-07T01:38:59;15.36;84.63
72126;SHT31;59999;51.676;22.650;2023-08-07T01:41:26;15.32;84.80
72126;SHT31;59999;51.676;22.650;2023-08-07T01:43:54;15.34;84.97
72126;SHT31;59999;51.676;22.650;2023-08-07T01:46:20;15.32;85.06
72126;SHT31;59999;51.676;22.650;2023-08-07T01:48:46;15.30;85.13
72126;SHT31;59999;51.676;22.650;2023-08-07T01:51:12;15.29;85.30
72126;SHT31;59999;51.676;22.650;2023-08-07T01:53:38;15.23;85.37
72126;SHT31;59999;51.676;22.650;2023-08-07T01:56:04;15.20;85.41
72126;SHT31;59999;51.676;22.650;2023-08-07T01:58:30;15.14;85.86
72126;SHT31;59999;51.676;22.650;2023-08-07T02:00:56;15.12;85.97
72126;SHT31;59999;51.676;22.650;2023-08-07T02:03:22;15.07;85.92
72126;SHT31;59999;51.676;22.650;2023-08-07T02:05:48;15.06;86.34
72126;SHT31;59999;51.676;22.650;2023-08-07T02:08:14;15.00;86.59
72126;SHT31;59999;51.676;22.650;2023-08-07T02:10:40;14.98;86.41
72126;SHT31;59999;51.676;22.650;2023-08-07T02:13:06;14.96;86.75
72126;SHT31;59999;51.676;22.650;2023-08-07T02:15:31;14.95;86.69
72126;SHT31;59999;51.676;22.650;2023-08-07T02:17:57;14.96;86.86
72126;SHT31;59999;51.676;22.650;2023-08-07T02:20:23;14.99;86.65
72126;SHT31;59999;51.676;22.650;2023-08-07T02:22:49;15.00;86.62
72126;SHT31;59999;51.676;22.650;2023-08-07T02:25:15;15.02;86.37
72126;SHT31;59999;51.676;22.650;2023-08-07T02:27:41;15.02;86.54
72126;SHT31;59999;51.676;22.650;2023-08-07T02:30:07;15.00;86.38
72126;SHT31;59999;51.676;22.650;2023-08-07T02:32:33;14.99;86.43
72126;SHT31;59999;51.676;22.650;2023-08-07T02:34:59;14.98;86.24
72126;SHT31;59999;51.676;22.650;2023-08-07T02:37:25;14.98;86.79
72126;SHT31;59999;51.676;22.650;2023-08-07T02:39:51;14.92;86.69
72126;SHT31;59999;51.676;22.650;2023-08-07T02:42:19;14.95;86.59
72126;SHT31;59999;51.676;22.650;2023-08-07T02:44:45;14.92;86.78
72126;SHT31;59999;51.676;22.650;2023-08-07T02:47:11;14.92;87.02
72126;SHT31;59999;51.676;22.650;2023-08-07T02:49:37;14.91;87.37
72126;SHT31;59999;51.676;22.650;2023-08-07T02:52:03;14.89;86.92
72126;SHT31;59999;51.676;22.650;2023-08-07T02:54:29;14.88;86.84
72126;SHT31;59999;51.676;22.650;2023-08-07T02:56:56;14.88;86.89
72126;SHT31;59999;51.676;22.650;2023-08-07T02:59:22;14.85;86.80
72126;SHT31;59999;51.676;22.650;2023-08-07T03:01:49;14.85;87.03
72126;SHT31;59999;51.676;22.650;2023-08-07T03:04:15;14.82;87.01
72126;SHT31;59999;51.676;22.650;2023-08-07T03:06:41;14.81;87.23
72126;SHT31;59999;51.676;22.650;2023-08-07T03:09:07;14.84;87.43
72126;SHT31;59999;51.676;22.650;2023-08-07T03:11:33;14.85;87.70
72126;SHT31;59999;51.676;22.650;2023-08-07T03:13:59;14.84;87.79
72126;SHT31;59999;51.676;22.650;2023-08-07T03:16:25;14.81;87.90
72126;SHT31;59999;51.676;22.650;2023-08-07T03:18:51;14.82;87.69
72126;SHT31;59999;51.676;22.650;2023-08-07T03:21:17;14.82;87.65
72126;SHT31;59999;51.676;22.650;2023-08-07T03:23:43;14.84;87.97
72126;SHT31;59999;51.676;22.650;2023-08-07T03:26:11;14.84;87.94
72126;SHT31;59999;51.676;22.650;2023-08-07T03:28:37;14.85;87.89
72126;SHT31;59999;51.676;22.650;2023-08-07T03:31:03;14.85;88.06
72126;SHT31;59999;51.676;22.650;2023-08-07T03:33:29;14.86;88.22
72126;SHT31;59999;51.676;22.650;2023-08-07T03:35:55;14.91;87.96
72126;SHT31;59999;51.676;22.650;2023-08-07T03:38:21;14.92;88.09
72126;SHT31;59999;51.676;22.650;2023-08-07T03:40:47;14.93;88.13
72126;SHT31;59999;51.676;22.650;2023-08-07T03:43:13;14.95;88.13
72126;SHT31;59999;51.676;22.650;2023-08-07T03:45:40;14.95;88.04
72126;SHT31;59999;51.676;22.650;2023-08-07T03:48:06;14.96;88.06
72126;SHT31;59999;51.676;22.650;2023-08-07T03:50:32;14.99;87.68
72126;SHT31;59999;51.676;22.650;2023-08-07T03:53:00;14.95;87.86
72126;SHT31;59999;51.676;22.650;2023-08-07T03:55:27;14.93;87.80
72126;SHT31;59999;51.676;22.650;2023-08-07T03:57:52;14.93;87.80
72126;SHT31;59999;51.676;22.650;2023-08-07T04:00:19;15.00;86.95
72126;SHT31;59999;51.676;22.650;2023-08-07T04:02:46;15.02;86.80
72126;SHT31;59999;51.676;22.650;2023-08-07T04:05:12;15.02;86.92
72126;SHT31;59999;51.676;22.650;2023-08-07T04:07:38;15.02;86.65
72126;SHT31;59999;51.676;22.650;2023-08-07T04:10:04;14.99;86.76
72126;SHT31;59999;51.676;22.650;2023-08-07T04:12:30;14.99;87.17
72126;SHT31;59999;51.676;22.650;2023-08-07T04:14:56;14.96;87.33
72126;SHT31;59999;51.676;22.650;2023-08-07T04:17:22;14.96;87.39
72126;SHT31;59999;51.676;22.650;2023-08-07T04:19:48;14.99;87.69
72126;SHT31;59999;51.676;22.650;2023-08-07T04:22:14;14.96;87.85
72126;SHT31;59999;51.676;22.650;2023-08-07T04:24:40;15.05;87.52
72126;SHT31;59999;51.676;22.650;2023-08-07T04:27:05;15.00;87.60
72126;SHT31;59999;51.676;22.650;2023-08-07T04:29:31;15.02;87.92
72126;SHT31;59999;51.676;22.650;2023-08-07T04:31:57;15.06;87.95
72126;SHT31;59999;51.676;22.650;2023-08-07T04:34:23;15.05;87.42
72126;SHT31;59999;51.676;22.650;2023-08-07T04:36:49;15.06;87.41
72126;SHT31;59999;51.676;22.650;2023-08-07T04:39:17;15.05;86.99
72126;SHT31;59999;51.676;22.650;2023-08-07T04:41:44;15.00;87.16
72126;SHT31;59999;51.676;22.650;2023-08-07T04:44:10;15.00;87.42
72126;SHT31;59999;51.676;22.650;2023-08-07T04:46:36;15.00;87.48
72126;SHT31;59999;51.676;22.650;2023-08-07T04:49:02;14.99;86.73
72126;SHT31;59999;51.676;22.650;2023-08-07T04:51:28;14.96;87.06
72126;SHT31;59999;51.676;22.650;2023-08-07T04:53:56;14.96;86.99
72126;SHT31;59999;51.676;22.650;2023-08-07T04:56:22;14.96;86.74
72126;SHT31;59999;51.676;22.650;2023-08-07T04:58:48;14.96;86.44
72126;SHT31;59999;51.676;22.650;2023-08-07T05:01:14;15.00;86.33
72126;SHT31;59999;51.676;22.650;2023-08-07T05:03:40;14.98;86.54
72126;SHT31;59999;51.676;22.650;2023-08-07T05:06:06;15.00;86.17
72126;SHT31;59999;51.676;22.650;2023-08-07T05:08:32;15.05;86.06
72126;SHT31;59999;51.676;22.650;2023-08-07T05:10:57;15.14;85.56
72126;SHT31;59999;51.676;22.650;2023-08-07T05:13:23;15.27;84.82
72126;SHT31;59999;51.676;22.650;2023-08-07T05:15:49;15.36;84.19
72126;SHT31;59999;51.676;22.650;2023-08-07T05:18:16;15.40;83.96
72126;SHT31;59999;51.676;22.650;2023-08-07T05:20:42;15.47;84.12
72126;SHT31;59999;51.676;22.650;2023-08-07T05:23:08;15.54;84.35
72126;SHT31;59999;51.676;22.650;2023-08-07T05:25:34;15.61;82.90
72126;SHT31;59999;51.676;22.650;2023-08-07T05:28:00;15.62;83.19
72126;SHT31;59999;51.676;22.650;2023-08-07T05:30:26;15.70;82.69
72126;SHT31;59999;51.676;22.650;2023-08-07T05:32:52;15.75;82.91
72126;SHT31;59999;51.676;22.650;2023-08-07T05:35:17;15.77;82.74
72126;SHT31;59999;51.676;22.650;2023-08-07T05:37:43;15.85;82.44
72126;SHT31;59999;51.676;22.650;2023-08-07T05:40:09;15.85;81.24
72126;SHT31;59999;51.676;22.650;2023-08-07T05:42:37;15.87;80.82
72126;SHT31;59999;51.676;22.650;2023-08-07T05:45:04;15.90;80.89
72126;SHT31;59999;51.676;22.650;2023-08-07T05:47:32;15.91;80.10
72126;SHT31;59999;51.676;22.650;2023-08-07T05:49:57;15.90;79.91
72126;SHT31;59999;51.676;22.650;2023-08-07T05:52:24;15.92;80.32
72126;SHT31;59999;51.676;22.650;2023-08-07T05:54:49;15.99;78.57
72126;SHT31;59999;51.676;22.650;2023-08-07T05:57:15;16.01;78.52
72126;SHT31;59999;51.676;22.650;2023-08-07T05:59:41;16.16;78.41
72126;SHT31;59999;51.676;22.650;2023-08-07T06:02:07;16.25;77.98
72126;SHT31;59999;51.676;22.650;2023-08-07T06:04:35;16.34;77.18
72126;SHT31;59999;51.676;22.650;2023-08-07T06:07:01;16.39;76.24
72126;SHT31;59999;51.676;22.650;2023-08-07T06:09:27;16.45;76.08
72126;SHT31;59999;51.676;22.650;2023-08-07T06:11:53;16.55;76.06
72126;SHT31;59999;51.676;22.650;2023-08-07T06:14:19;16.53;75.72
72126;SHT31;59999;51.676;22.650;2023-08-07T06:16:45;16.53;75.78
72126;SHT31;59999;51.676;22.650;2023-08-07T06:19:11;16.46;76.68
72126;SHT31;59999;51.676;22.650;2023-08-07T06:21:37;16.36;76.61
72126;SHT31;59999;51.676;22.650;2023-08-07T06:24:03;16.25;76.88
72126;SHT31;59999;51.676;22.650;2023-08-07T06:26:29;16.16;77.71
72126;SHT31;59999;51.676;22.650;2023-08-07T06:28:55;16.05;78.40
72126;SHT31;59999;51.676;22.650;2023-08-07T06:31:21;15.95;78.64
72126;SHT31;59999;51.676;22.650;2023-08-07T06:33:47;15.88;78.94
72126;SHT31;59999;51.676;22.650;2023-08-07T06:36:13;15.81;78.70
72126;SHT31;59999;51.676;22.650;2023-08-07T06:38:39;15.88;78.31
72126;SHT31;59999;51.676;22.650;2023-08-07T06:41:05;15.94;78.38
72126;SHT31;59999;51.676;22.650;2023-08-07T06:43:30;16.04;78.41
72126;SHT31;59999;51.676;22.650;2023-08-07T06:45:57;16.22;78.15
72126;SHT31;59999;51.676;22.650;2023-08-07T06:48:23;16.42;77.72
72126;SHT31;59999;51.676;22.650;2023-08-07T06:50:50;16.52;77.23
72126;SHT31;59999;51.676;22.650;2023-08-07T06:53:16;16.42;75.82
72126;SHT31;59999;51.676;22.650;2023-08-07T06:55:42;16.32;75.98
72126;SHT31;59999;51.676;22.650;2023-08-07T06:58:09;16.25;76.72
72126;SHT31;59999;51.676;22.650;2023-08-07T07:00:36;16.18;77.11
72126;SHT31;59999;51.676;22.650;2023-08-07T07:03:02;16.13;77.13
72126;SHT31;59999;51.676;22.650;2023-08-07T07:05:29;16.18;77.42
72126;SHT31;59999;51.676;22.650;2023-08-07T07:07:56;16.19;76.71
72126;SHT31;59999;51.676;22.650;2023-08-07T07:10:22;16.25;76.78
72126;SHT31;59999;51.676;22.650;2023-08-07T07:12:48;16.42;76.11
72126;SHT31;59999;51.676;22.650;2023-08-07T07:15:15;16.50;76.25
72126;SHT31;59999;51.676;22.650;2023-08-07T07:17:41;16.59;75.22
72126;SHT31;59999;51.676;22.650;2023-08-07T07:20:07;16.71;74.99
72126;SHT31;59999;51.676;22.650;2023-08-07T07:22:35;16.76;74.78
72126;SHT31;59999;51.676;22.650;2023-08-07T07:25:01;16.85;75.79
72126;SHT31;59999;51.676;22.650;2023-08-07T07:27:27;16.83;74.58
72126;SHT31;59999;51.676;22.650;2023-08-07T07:29:53;16.89;74.37
72126;SHT31;59999;51.676;22.650;2023-08-07T07:32:19;16.85;73.96
72126;SHT31;59999;51.676;22.650;2023-08-07T07:34:45;16.83;73.66
72126;SHT31;59999;51.676;22.650;2023-08-07T07:37:11;17.00;74.33
72126;SHT31;59999;51.676;22.650;2023-08-07T07:39:37;17.10;73.72
72126;SHT31;59999;51.676;22.650;2023-08-07T07:42:03;17.21;73.53
72126;SHT31;59999;51.676;22.650;2023-08-07T07:44:31;17.28;73.27
72126;SHT31;59999;51.676;22.650;2023-08-07T07:46:57;17.40;72.58
72126;SHT31;59999;51.676;22.650;2023-08-07T07:49:23;17.43;72.11
72126;SHT31;59999;51.676;22.650;2023-08-07T07:51:48;17.43;71.70
72126;SHT31;59999;51.676;22.650;2023-08-07T07:54:15;17.49;72.23
72126;SHT31;59999;51.676;22.650;2023-08-07T07:56:42;17.39;70.58
72126;SHT31;59999;51.676;22.650;2023-08-07T07:59:09;17.35;70.14
72126;SHT31;59999;51.676;22.650;2023-08-07T08:01:35;17.34;70.93
72126;SHT31;59999;51.676;22.650;2023-08-07T08:04:01;17.34;70.64
72126;SHT31;59999;51.676;22.650;2023-08-07T08:06:27;17.34;70.72
72126;SHT31;59999;51.676;22.650;2023-08-07T08:08:53;17.38;70.22
72126;SHT31;59999;51.676;22.650;2023-08-07T08:11:19;17.50;70.19
72126;SHT31;59999;51.676;22.650;2023-08-07T08:13:45;17.56;68.64
72126;SHT31;59999;51.676;22.650;2023-08-07T08:16:11;17.70;69.07
72126;SHT31;59999;51.676;22.650;2023-08-07T08:18:37;17.89;67.42
72126;SHT31;59999;51.676;22.650;2023-08-07T08:21:03;17.94;66.72
72126;SHT31;59999;51.676;22.650;2023-08-07T08:23:29;18.13;66.99
72126;SHT31;59999;51.676;22.650;2023-08-07T08:25:55;18.28;66.65
72126;SHT31;59999;51.676;22.650;2023-08-07T08:28:21;18.18;65.13
72126;SHT31;59999;51.676;22.650;2023-08-07T08:30:48;18.03;65.37
72126;SHT31;59999;51.676;22.650;2023-08-07T08:33:14;17.97;66.91
72126;SHT31;59999;51.676;22.650;2023-08-07T08:35:40;17.97;68.16
72126;SHT31;59999;51.676;22.650;2023-08-07T08:38:06;18.03;66.31
72126;SHT31;59999;51.676;22.650;2023-08-07T09:01:06;18.56;66.92
72126;SHT31;59999;51.676;22.650;2023-08-07T09:03:33;18.63;63.12
72126;SHT31;59999;51.676;22.650;2023-08-07T09:05:59;19.00;63.13
72126;SHT31;59999;51.676;22.650;2023-08-07T09:08:27;19.13;61.23
72126;SHT31;59999;51.676;22.650;2023-08-07T09:10:55;19.07;61.64
72126;SHT31;59999;51.676;22.650;2023-08-07T09:13:23;18.90;61.76
72126;SHT31;59999;51.676;22.650;2023-08-07T09:15:51;18.90;62.47
72126;SHT31;59999;51.676;22.650;2023-08-07T09:18:17;18.96;61.46
72126;SHT31;59999;51.676;22.650;2023-08-07T09:20:45;19.06;59.82
72126;SHT31;59999;51.676;22.650;2023-08-07T09:23:12;19.24;60.15
72126;SHT31;59999;51.676;22.650;2023-08-07T09:25:38;19.47;58.33
72126;SHT31;59999;51.676;22.650;2023-08-07T09:28:05;19.61;58.72
72126;SHT31;59999;51.676;22.650;2023-08-07T09:30:35;19.40;57.81
72126;SHT31;59999;51.676;22.650;2023-08-07T09:33:03;19.35;59.02
72126;SHT31;59999;51.676;22.650;2023-08-07T09:35:30;19.26;60.02
72126;SHT31;59999;51.676;22.650;2023-08-07T09:37:58;19.09;59.35
72126;SHT31;59999;51.676;22.650;2023-08-07T09:40:24;18.95;60.83
72126;SHT31;59999;51.676;22.650;2023-08-07T09:42:51;18.85;61.52
72126;SHT31;59999;51.676;22.650;2023-08-07T09:45:27;19.06;62.34
72126;SHT31;59999;51.676;22.650;2023-08-07T09:48:05;19.40;61.53
72126;SHT31;59999;51.676;22.650;2023-08-07T09:50:36;19.74;61.68
72126;SHT31;59999;51.676;22.650;2023-08-07T09:53:03;19.98;57.87
72126;SHT31;59999;51.676;22.650;2023-08-07T09:55:30;19.93;56.57
72126;SHT31;59999;51.676;22.650;2023-08-07T09:57:57;20.05;57.46
72126;SHT31;59999;51.676;22.650;2023-08-07T10:00:23;20.23;55.85
72126;SHT31;59999;51.676;22.650;2023-08-07T10:02:50;20.34;56.16
72126;SHT31;59999;51.676;22.650;2023-08-07T10:05:16;20.56;55.77
72126;SHT31;59999;51.676;22.650;2023-08-07T10:07:44;20.61;53.95
72126;SHT31;59999;51.676;22.650;2023-08-07T10:10:10;20.58;54.60
72126;SHT31;59999;51.676;22.650;2023-08-07T10:12:37;20.36;55.32
72126;SHT31;59999;51.676;22.650;2023-08-07T10:15:04;20.25;54.76
72126;SHT31;59999;51.676;22.650;2023-08-07T10:17:32;19.93;55.65
72126;SHT31;59999;51.676;22.650;2023-08-07T10:19:58;19.89;55.50
72126;SHT31;59999;51.676;22.650;2023-08-07T10:22:26;19.92;55.81
72126;SHT31;59999;51.676;22.650;2023-08-07T10:24:53;20.04;55.25
72126;SHT31;59999;51.676;22.650;2023-08-07T10:27:22;20.13;56.32
72126;SHT31;59999;51.676;22.650;2023-08-07T10:29:51;20.36;55.72
72126;SHT31;59999;51.676;22.650;2023-08-07T10:32:19;20.25;54.76
72126;SHT31;59999;51.676;22.650;2023-08-07T10:34:51;20.12;55.33
72126;SHT31;59999;51.676;22.650;2023-08-07T10:37:42;19.99;55.34
72126;SHT31;59999;51.676;22.650;2023-08-07T10:40:12;20.10;56.26
72126;SHT31;59999;51.676;22.650;2023-08-07T10:45:17;20.44;54.87
72126;SHT31;59999;51.676;22.650;2023-08-07T10:47:44;20.37;54.97
72126;SHT31;59999;51.676;22.650;2023-08-07T10:50:18;20.43;55.87
72126;SHT31;59999;51.676;22.650;2023-08-07T10:52:51;20.43;54.21
72126;SHT31;59999;51.676;22.650;2023-08-07T10:55:17;20.60;54.70
72126;SHT31;59999;51.676;22.650;2023-08-07T10:57:46;20.71;54.82
72126;SHT31;59999;51.676;22.650;2023-08-07T11:00:13;20.90;52.39
72126;SHT31;59999;51.676;22.650;2023-08-07T11:02:41;21.12;51.82
72126;SHT31;59999;51.676;22.650;2023-08-07T11:05:08;21.16;50.70
72126;SHT31;59999;51.676;22.650;2023-08-07T11:07:40;21.21;50.60
72126;SHT31;59999;51.676;22.650;2023-08-07T11:10:06;21.22;51.40
72126;SHT31;59999;51.676;22.650;2023-08-07T11:12:33;21.19;50.04
72126;SHT31;59999;51.676;22.650;2023-08-07T11:14:59;21.19;50.15
72126;SHT31;59999;51.676;22.650;2023-08-07T11:17:26;21.22;51.63
72126;SHT31;59999;51.676;22.650;2023-08-07T11:19:53;21.36;51.55
72126;SHT31;59999;51.676;22.650;2023-08-07T11:22:21;21.38;51.14
72126;SHT31;59999;51.676;22.650;2023-08-07T11:24:48;21.54;50.24
72126;SHT31;59999;51.676;22.650;2023-08-07T11:27:15;21.49;50.78
72126;SHT31;59999;51.676;22.650;2023-08-07T11:29:47;21.38;50.96
72126;SHT31;59999;51.676;22.650;2023-08-07T11:32:13;21.15;51.12
72126;SHT31;59999;51.676;22.650;2023-08-07T11:34:39;21.11;50.28
72126;SHT31;59999;51.676;22.650;2023-08-07T11:37:06;20.96;50.89
72126;SHT31;59999;51.676;22.650;2023-08-07T11:39:31;20.83;51.33
72126;SHT31;59999;51.676;22.650;2023-08-07T11:41:58;20.80;52.10
72126;SHT31;59999;51.676;22.650;2023-08-07T11:44:25;20.77;51.83
72126;SHT31;59999;51.676;22.650;2023-08-07T11:46:52;20.98;52.22
72126;SHT31;59999;51.676;22.650;2023-08-07T11:49:18;21.15;52.91
72126;SHT31;59999;51.676;22.650;2023-08-07T11:51:46;21.22;51.34
72126;SHT31;59999;51.676;22.650;2023-08-07T11:54:14;21.32;51.04
72126;SHT31;59999;51.676;22.650;2023-08-07T11:56:41;21.21;51.06
72126;SHT31;59999;51.676;22.650;2023-08-07T12:12:35;21.14;51.80
72126;SHT31;59999;51.676;22.650;2023-08-07T12:15:02;21.28;51.94
72126;SHT31;59999;51.676;22.650;2023-08-07T12:17:33;21.45;51.55
72126;SHT31;59999;51.676;22.650;2023-08-07T12:19:59;21.79;50.84
72126;SHT31;59999;51.676;22.650;2023-08-07T12:22:27;21.69;51.51
72126;SHT31;59999;51.676;22.650;2023-08-07T12:24:56;21.49;50.75
72126;SHT31;59999;51.676;22.650;2023-08-07T12:27:22;21.29;52.65
72126;SHT31;59999;51.676;22.650;2023-08-07T12:29:48;21.06;53.17
72126;SHT31;59999;51.676;22.650;2023-08-07T12:32:14;20.84;53.68
72126;SHT31;59999;51.676;22.650;2023-08-07T12:34:41;20.77;54.12
72126;SHT31;59999;51.676;22.650;2023-08-07T12:37:06;20.63;52.19
72126;SHT31;59999;51.676;22.650;2023-08-07T12:39:33;20.51;53.52
72126;SHT31;59999;51.676;22.650;2023-08-07T12:41:59;20.53;52.99
72126;SHT31;59999;51.676;22.650;2023-08-07T12:44:25;20.67;53.82
72126;SHT31;59999;51.676;22.650;2023-08-07T12:46:51;20.78;52.93
72126;SHT31;59999;51.676;22.650;2023-08-07T12:49:18;20.94;53.71
72126;SHT31;59999;51.676;22.650;2023-08-07T12:51:44;21.06;53.28
72126;SHT31;59999;51.676;22.650;2023-08-07T12:54:11;21.04;51.76
72126;SHT31;59999;51.676;22.650;2023-08-07T12:56:36;21.23;50.28
72126;SHT31;59999;51.676;22.650;2023-08-07T12:59:02;21.47;50.76
72126;SHT31;59999;51.676;22.650;2023-08-07T13:01:28;21.81;50.74
72126;SHT31;59999;51.676;22.650;2023-08-07T13:03:55;21.93;49.98
72126;SHT31;59999;51.676;22.650;2023-08-07T13:06:21;22.08;48.84
72126;SHT31;59999;51.676;22.650;2023-08-07T13:08:47;22.01;48.56
72126;SHT31;59999;51.676;22.650;2023-08-07T13:11:13;22.08;49.89
72126;SHT31;59999;51.676;22.650;2023-08-07T13:13:39;22.27;51.37
72126;SHT31;59999;51.676;22.650;2023-08-07T13:16:05;21.74;50.17
72126;SHT31;59999;51.676;22.650;2023-08-07T13:18:32;21.50;51.49
72126;SHT31;59999;51.676;22.650;2023-08-07T13:20:58;21.35;49.97
72126;SHT31;59999;51.676;22.650;2023-08-07T13:23:24;21.33;49.83
72126;SHT31;59999;51.676;22.650;2023-08-07T13:25:50;21.25;51.49
72126;SHT31;59999;51.676;22.650;2023-08-07T13:28:16;21.29;51.19
72126;SHT31;59999;51.676;22.650;2023-08-07T13:30:43;21.36;51.05
72126;SHT31;59999;51.676;22.650;2023-08-07T13:33:09;21.53;51.80
72126;SHT31;59999;51.676;22.650;2023-08-07T13:35:35;21.89;53.12
72126;SHT31;59999;51.676;22.650;2023-08-07T13:38:01;22.08;52.66
72126;SHT31;59999;51.676;22.650;2023-08-07T13:40:30;21.73;49.74
72126;SHT31;59999;51.676;22.650;2023-08-07T13:42:56;21.62;50.14
72126;SHT31;59999;51.676;22.650;2023-08-07T13:45:22;21.43;50.47
72126;SHT31;59999;51.676;22.650;2023-08-07T13:47:48;21.45;51.72
72126;SHT31;59999;51.676;22.650;2023-08-07T13:50:14;21.43;52.05
72126;SHT31;59999;51.676;22.650;2023-08-07T13:52:41;21.56;51.92
72126;SHT31;59999;51.676;22.650;2023-08-07T13:55:07;21.70;51.77
72126;SHT31;59999;51.676;22.650;2023-08-07T13:57:35;21.89;51.68
72126;SHT31;59999;51.676;22.650;2023-08-07T14:00:00;21.91;50.11
72126;SHT31;59999;51.676;22.650;2023-08-07T14:02:26;22.00;50.82
72126;SHT31;59999;51.676;22.650;2023-08-07T14:04:52;21.84;50.65
72126;SHT31;59999;51.676;22.650;2023-08-07T14:07:18;21.89;49.31
72126;SHT31;59999;51.676;22.650;2023-08-07T14:09:44;21.89;49.48
72126;SHT31;59999;51.676;22.650;2023-08-07T14:12:10;22.08;48.64
72126;SHT31;59999;51.676;22.650;2023-08-07T14:14:36;22.32;48.88
72126;SHT31;59999;51.676;22.650;2023-08-07T14:17:02;22.76;47.88
72126;SHT31;59999;51.676;22.650;2023-08-07T14:19:28;23.06;46.55
72126;SHT31;59999;51.676;22.650;2023-08-07T14:21:54;22.85;45.34
72126;SHT31;59999;51.676;22.650;2023-08-07T14:24:20;22.96;46.03
72126;SHT31;59999;51.676;22.650;2023-08-07T14:26:48;23.23;45.86
72126;SHT31;59999;51.676;22.650;2023-08-07T14:29:14;23.65;45.71
72126;SHT31;59999;51.676;22.650;2023-08-07T14:31:41;23.82;43.86
72126;SHT31;59999;51.676;22.650;2023-08-07T14:34:07;23.90;44.14
72126;SHT31;59999;51.676;22.650;2023-08-07T14:36:34;23.72;44.02
72126;SHT31;59999;51.676;22.650;2023-08-07T14:38:59;23.40;44.38
72126;SHT31;59999;51.676;22.650;2023-08-07T14:41:26;23.43;45.42
72126;SHT31;59999;51.676;22.650;2023-08-07T14:43:51;23.48;44.31
72126;SHT31;59999;51.676;22.650;2023-08-07T14:46:17;23.43;44.37
72126;SHT31;59999;51.676;22.650;2023-08-07T14:48:44;23.23;44.22
72126;SHT31;59999;51.676;22.650;2023-08-07T14:51:10;23.06;43.13
72126;SHT31;59999;51.676;22.650;2023-08-07T14:53:36;23.10;44.12
72126;SHT31;59999;51.676;22.650;2023-08-07T14:56:02;22.92;43.86
72126;SHT31;59999;51.676;22.650;2023-08-07T14:58:28;22.87;44.14
72126;SHT31;59999;51.676;22.650;2023-08-07T15:00:55;23.13;43.72
72126;SHT31;59999;51.676;22.650;2023-08-07T15:03:21;23.11;45.02
72126;SHT31;59999;51.676;22.650;2023-08-07T15:05:47;23.43;44.57
72126;SHT31;59999;51.676;22.650;2023-08-07T15:08:13;24.09;43.78
72126;SHT31;59999;51.676;22.650;2023-08-07T15:10:40;24.84;42.57
72126;SHT31;59999;51.676;22.650;2023-08-07T15:13:06;24.91;39.21
72126;SHT31;59999;51.676;22.650;2023-08-07T15:15:32;24.99;39.75
72126;SHT31;59999;51.676;22.650;2023-08-07T15:17:59;25.43;38.83
72126;SHT31;59999;51.676;22.650;2023-08-07T15:20:28;25.65;38.39
72126;SHT31;59999;51.676;22.650;2023-08-07T15:22:54;24.98;39.16
72126;SHT31;59999;51.676;22.650;2023-08-07T15:25:20;24.49;40.08
72126;SHT31;59999;51.676;22.650;2023-08-07T15:27:46;24.08;41.85
72126;SHT31;59999;51.676;22.650;2023-08-07T15:30:12;23.40;43.58
72126;SHT31;59999;51.676;22.650;2023-08-07T15:32:38;22.89;45.88
72126;SHT31;59999;51.676;22.650;2023-08-07T15:35:06;22.44;47.52
72126;SHT31;59999;51.676;22.650;2023-08-07T15:37:33;22.41;48.89
72126;SHT31;59999;51.676;22.650;2023-08-07T15:39:58;23.10;47.45
72126;SHT31;59999;51.676;22.650;2023-08-07T15:42:24;23.10;46.66
72126;SHT31;59999;51.676;22.650;2023-08-07T15:44:50;22.96;47.32
72126;SHT31;59999;51.676;22.650;2023-08-07T15:47:16;23.53;47.20
72126;SHT31;59999;51.676;22.650;2023-08-07T15:49:42;24.14;44.94
72126;SHT31;59999;51.676;22.650;2023-08-07T15:52:10;24.77;44.52
72126;SHT31;59999;51.676;22.650;2023-08-07T15:54:36;24.36;44.15